Time;durP1;ratioP1;P1;durP2;ratioP2;P2;SDS_P1;SDS_P2;PMS_P1;PMS_P2;Temp;Humidity;BMP_temperature;BMP_pressure;BME280_temperature;BME280_humidity;BME280_pressure;Samples;Min_cycle;Max_cycle;Signal;HPM_P1;HPM_P2
2023/05/15 00:01:34;;;;;;;;;;;;;;;-144.99;82.06;52219.81;5086174;28;19928;-71
2023/05/15 00:04:01;;;;;;;;;;;;;;;-144.99;82.21;52217.78;5094278;28;20050;-70
2023/05/15 00:06:28;;;;;;;;;;;;;;;-144.99;82.53;52211.66;5090970;28;20031;-72
2023/05/15 00:08:54;;;;;;;;;;;;;;;-144.99;82.96;52203.50;5087922;28;20028;-71
2023/05/15 00:11:22;;;;;;;;;;;;;;;-144.99;83.08;52195.34;5088611;28;19928;-70
2023/05/15 00:13:50;;;;;;;;;;;;;;;-144.99;83.57;52215.75;5096652;27;19928;-69
2023/05/15 00:16:17;;;;;;;;;;;;;;;-144.99;83.89;52211.66;5092768;28;19934;-69
2023/05/15 00:18:43;;;;;;;;;;;;;;;-144.99;84.14;52207.59;5087960;28;19998;-68
2023/05/15 00:21:10;;;;;;;;;;;;;;;-144.99;84.24;52187.19;5084671;28;20000;-70
2023/05/15 00:23:36;;;;;;;;;;;;;;;-144.99;84.62;52223.88;5085417;28;19932;-72
2023/05/15 00:26:03;;;;;;;;;;;;;;;-144.99;84.68;52199.44;5088939;27;20342;-71
2023/05/15 00:28:29;;;;;;;;;;;;;;;-144.99;85.03;52205.53;5095684;28;20087;-71
2023/05/15 00:30:57;;;;;;;;;;;;;;;-144.99;85.07;52183.13;5087142;28;20314;-70
2023/05/15 00:33:24;;;;;;;;;;;;;;;-144.99;85.16;52215.75;5087562;28;20356;-71
2023/05/15 00:35:50;;;;;;;;;;;;;;;-144.99;85.51;52211.66;5084779;28;19936;-71
2023/05/15 00:38:17;;;;;;;;;;;;;;;-144.99;85.85;52242.22;5086736;28;19928;-78
2023/05/15 00:40:44;;;;;;;;;;;;;;;-144.99;85.74;52203.50;5083267;28;20028;-69
2023/05/15 00:43:11;;;;;;;;;;;;;;;-144.99;86.15;52215.75;5089511;28;19993;-69
2023/05/15 00:45:41;;;;;;;;;;;;;;;-144.99;86.32;52234.09;5097098;28;20017;-69
2023/05/15 00:48:09;;;;;;;;;;;;;;;-144.99;86.53;52207.59;5085548;28;19939;-70
2023/05/15 00:50:36;;;;;;;;;;;;;;;-144.99;86.45;52236.13;5086269;28;19989;-70
2023/05/15 00:53:03;;;;;;;;;;;;;;;-144.99;86.74;52199.44;5094192;28;20400;-70
2023/05/15 00:55:31;;;;;;;;;;;;;;;-144.99;86.92;52207.59;5096978;28;19963;-70
2023/05/15 00:57:58;;;;;;;;;;;;;;;-144.99;87.20;52199.44;5095082;28;20401;-70
2023/05/15 01:00:25;;;;;;;;;;;;;;;-144.99;87.48;52230.00;5091461;28;19967;-70
2023/05/15 01:02:51;;;;;;;;;;;;;;;-144.99;87.34;52219.81;5086255;28;19971;-70
2023/05/15 01:05:19;;;;;;;;;;;;;;;-144.99;87.65;52195.34;5098752;28;19971;-70
2023/05/15 01:07:50;;;;;;;;;;;;;;;-144.99;87.41;52195.34;5100264;28;20028;-70
2023/05/15 01:10:17;;;;;;;;;;;;;;;-144.99;87.60;52203.50;5096139;28;19928;-71
2023/05/15 01:12:46;;;;;;;;;;;;;;;-144.99;87.30;52219.81;5092969;28;20360;-71
2023/05/15 01:15:12;;;;;;;;;;;;;;;-144.99;86.98;52203.50;5087575;28;20559;-72
2023/05/15 01:17:39;;;;;;;;;;;;;;;-144.99;87.33;52195.34;5097339;28;20295;-77
2023/05/15 01:20:08;;;;;;;;;;;;;;;-144.99;87.16;52207.59;5090606;28;19937;-78
2023/05/15 01:22:41;;;;;;;;;;;;;;;-144.99;87.26;52195.34;5088325;28;19932;-78
2023/05/15 01:25:26;;;;;;;;;;;;;;;-144.99;87.18;52199.44;4739356;28;10000072;-68
2023/05/15 01:27:55;;;;;;;;;;;;;;;-144.99;87.13;52217.78;5096685;28;20289;-68
2023/05/15 01:30:23;;;;;;;;;;;;;;;-144.99;87.51;52236.13;5093722;28;19928;-77
2023/05/15 01:32:53;;;;;;;;;;;;;;;-144.99;87.71;52195.34;5089296;28;20016;-77
2023/05/15 01:35:22;;;;;;;;;;;;;;;-144.99;88.14;52209.63;5096499;28;19928;-77
2023/05/15 01:37:50;;;;;;;;;;;;;;;-144.99;88.40;52223.88;5101251;28;20014;-74
2023/05/15 01:40:18;;;;;;;;;;;;;;;-144.99;88.50;52230.00;5097590;28;19977;-70
2023/05/15 01:42:50;;;;;;;;;;;;;;;-144.99;88.35;52199.44;5096377;28;19924;-71
2023/05/15 01:45:18;;;;;;;;;;;;;;;-144.99;88.30;52195.34;5095156;28;20001;-71
2023/05/15 01:47:46;;;;;;;;;;;;;;;-144.99;88.48;52201.47;5092420;28;20056;-72
2023/05/15 01:50:14;;;;;;;;;;;;;;;-144.99;88.66;52187.19;5095667;28;19928;-71
2023/05/15 01:52:42;;;;;;;;;;;;;;;-144.99;88.51;52207.59;5090643;28;20038;-73
2023/05/15 01:55:09;;;;;;;;;;;;;;;-144.99;88.96;52199.44;5095232;28;20298;-72
2023/05/15 01:57:37;;;;;;;;;;;;;;;-144.99;89.04;52211.66;5095320;28;20017;-71
2023/05/15 02:00:04;;;;;;;;;;;;;;;-144.99;89.12;52158.66;5093030;28;19924;-71
2023/05/15 02:02:32;;;;;;;;;;;;;;;-144.99;89.24;52227.97;5091510;28;19924;-72
2023/05/15 02:04:59;;;;;;;;;;;;;;;-144.99;88.92;52203.50;5093190;28;19940;-71
2023/05/15 02:07:26;;;;;;;;;;;;;;;-144.99;88.70;52187.19;5095237;28;19931;-71
2023/05/15 02:09:53;;;;;;;;;;;;;;;-144.99;88.73;52183.13;5094814;28;19931;-71
2023/05/15 02:12:20;;;;;;;;;;;;;;;-144.99;88.50;52174.97;5095612;28;19928;-73
2023/05/15 02:14:49;;;;;;;;;;;;;;;-144.99;88.51;52203.50;5096338;27;19924;-72
2023/05/15 02:17:15;;;;;;;;;;;;;;;-144.99;88.51;52174.97;5109042;28;19970;-74
2023/05/15 02:19:43;;;;;;;;;;;;;;;-144.99;88.58;52215.75;5105445;28;20225;-74
2023/05/15 02:22:10;;;;;;;;;;;;;;;-144.99;88.29;52195.34;5098278;28;19928;-74
2023/05/15 02:24:36;;;;;;;;;;;;;;;-144.99;88.42;52203.50;5093545;28;20456;-75
2023/05/15 02:27:08;;;;;;;;;;;;;;;-144.99;88.58;52201.47;5091142;28;19970;-75
2023/05/15 02:29:42;;;;;;;;;;;;;;;-144.99;88.84;52191.28;5093894;28;20389;-75
2023/05/15 02:32:12;;;;;;;;;;;;;;;-144.99;89.21;52221.84;5092398;28;20410;-75
2023/05/15 02:34:42;;;;;;;;;;;;;;;-144.99;89.39;52219.81;5098359;28;20055;-74
2023/05/15 02:37:11;;;;;;;;;;;;;;;-144.99;89.39;52215.75;5090397;28;19928;-74
2023/05/15 02:39:38;;;;;;;;;;;;;;;-144.99;89.47;52187.19;5099268;28;19943;-74
2023/05/15 02:42:06;;;;;;;;;;;;;;;-144.99;89.77;52211.66;5098150;28;19924;-76
2023/05/15 02:44:34;;;;;;;;;;;;;;;-144.99;89.77;52203.50;5102873;28;19932;-75
2023/05/15 02:47:03;;;;;;;;;;;;;;;-144.99;90.21;52195.34;5095452;28;19984;-75
2023/05/15 02:49:29;;;;;;;;;;;;;;;-144.99;90.37;52203.50;5093811;28;19924;-72
2023/05/15 02:51:56;;;;;;;;;;;;;;;-144.99;90.33;52240.19;5089506;28;19967;-70
2023/05/15 02:54:23;;;;;;;;;;;;;;;-144.99;90.69;52199.44;5101628;28;19931;-70
2023/05/15 02:56:50;;;;;;;;;;;;;;;-144.99;90.96;52201.47;5090332;28;20001;-71
2023/05/15 02:59:18;;;;;;;;;;;;;;;-144.99;90.83;52232.03;5094742;28;19998;-71
2023/05/15 03:01:45;;;;;;;;;;;;;;;-144.99;90.65;52248.34;5090450;28;19951;-70
2023/05/15 03:04:12;;;;;;;;;;;;;;;-144.99;90.30;52223.88;5095125;28;19927;-68
2023/05/15 03:06:38;;;;;;;;;;;;;;;-144.99;90.26;52225.94;5087985;28;20438;-68
2023/05/15 03:09:05;;;;;;;;;;;;;;;-144.99;90.55;52240.19;5091350;28;20118;-67
2023/05/15 03:11:32;;;;;;;;;;;;;;;-144.99;90.49;52207.59;5089234;28;19971;-67
2023/05/15 03:13:59;;;;;;;;;;;;;;;-144.99;90.05;52221.84;5101551;27;19924;-67
2023/05/15 03:16:26;;;;;;;;;;;;;;;-144.99;90.01;52211.66;5089050;28;19949;-67
2023/05/15 03:18:52;;;;;;;;;;;;;;;-144.99;90.44;52230.00;5089883;28;19950;-67
2023/05/15 03:21:19;;;;;;;;;;;;;;;-144.99;90.04;52225.94;5094927;28;19967;-67
2023/05/15 03:23:45;;;;;;;;;;;;;;;-144.99;89.95;52203.50;5097269;28;20319;-67
2023/05/15 03:26:12;;;;;;;;;;;;;;;-144.99;90.09;52203.50;5088930;28;19928;-67
2023/05/15 03:28:40;;;;;;;;;;;;;;;-144.99;90.04;52248.34;5093708;28;19981;-68
2023/05/15 03:31:07;;;;;;;;;;;;;;;-144.99;89.95;52187.19;5103160;28;19999;-67
2023/05/15 03:33:33;;;;;;;;;;;;;;;-144.99;90.31;52211.66;5088951;28;20014;-67
2023/05/15 03:36:00;;;;;;;;;;;;;;;-144.99;90.60;52227.97;5088967;28;20023;-67
2023/05/15 03:38:26;;;;;;;;;;;;;;;-144.99;90.59;52221.84;5086605;28;20454;-67
2023/05/15 03:40:53;;;;;;;;;;;;;;;-144.99;90.69;52203.50;5097475;28;19959;-68
2023/05/15 03:43:19;;;;;;;;;;;;;;;-144.99;90.82;52203.50;5090812;28;19928;-68
2023/05/15 03:45:47;;;;;;;;;;;;;;;-144.99;90.88;52215.75;5090416;28;19964;-68
2023/05/15 03:48:14;;;;;;;;;;;;;;;-144.99;90.72;52168.84;5093401;28;19965;-68
2023/05/15 03:50:40;;;;;;;;;;;;;;;-144.99;90.60;52215.75;5100492;28;19928;-68
2023/05/15 03:53:07;;;;;;;;;;;;;;;-144.99;90.41;52248.34;5095217;28;19978;-70
2023/05/15 03:55:33;;;;;;;;;;;;;;;-144.99;90.43;52197.41;5097094;28;20397;-69
2023/05/15 03:58:00;;;;;;;;;;;;;;;-144.99;90.40;52179.06;5089997;28;19985;-68
2023/05/15 04:00:26;;;;;;;;;;;;;;;-144.99;90.77;52181.09;5090357;28;20361;-68
2023/05/15 04:02:54;;;;;;;;;;;;;;;-144.99;90.73;52248.34;5088612;28;19985;-68
2023/05/15 04:05:21;;;;;;;;;;;;;;;-144.99;90.53;52197.41;5095942;28;19923;-68
2023/05/15 04:07:47;;;;;;;;;;;;;;;-144.99;90.36;52174.97;5088344;28;20027;-71
2023/05/15 04:10:14;;;;;;;;;;;;;;;-144.99;90.04;52179.06;5100105;28;20021;-71
2023/05/15 04:12:40;;;;;;;;;;;;;;;-144.99;90.42;52195.34;5087973;28;20366;-70
2023/05/15 04:15:14;;;;;;;;;;;;;;;-144.99;90.37;52166.81;5101276;27;20748;-68
2023/05/15 04:17:40;;;;;;;;;;;;;;;-144.99;90.41;52199.44;5089083;28;19990;-69
2023/05/15 04:20:09;;;;;;;;;;;;;;;-144.99;90.19;52183.13;5101483;28;20296;-72
2023/05/15 04:22:36;;;;;;;;;;;;;;;-144.99;90.11;52195.34;5090420;28;19927;-71
2023/05/15 04:25:03;;;;;;;;;;;;;;;-144.99;90.05;52162.75;5089975;28;19953;-68
2023/05/15 04:27:30;;;;;;;;;;;;;;;-144.99;89.88;52191.28;5095002;28;19958;-68
2023/05/15 04:29:56;;;;;;;;;;;;;;;-144.99;89.63;52179.06;5097426;28;20000;-68
2023/05/15 04:32:23;;;;;;;;;;;;;;;-144.99;89.66;52158.66;5100210;27;19924;-68
2023/05/15 04:34:49;;;;;;;;;;;;;;;-144.99;89.51;52174.97;5091719;28;19946;-69
2023/05/15 04:37:17;;;;;;;;;;;;;;;-144.99;89.20;52183.13;5090567;28;19928;-69
2023/05/15 04:39:44;;;;;;;;;;;;;;;-144.99;89.10;52166.81;5101106;28;19935;-68
2023/05/15 04:42:11;;;;;;;;;;;;;;;-144.99;89.32;52232.03;5091329;28;19924;-69
2023/05/15 04:44:37;;;;;;;;;;;;;;;-144.99;89.18;52162.75;5091727;28;20403;-68
2023/05/15 04:47:04;;;;;;;;;;;;;;;-144.99;89.16;52142.38;5101009;28;20335;-69
2023/05/15 04:49:30;;;;;;;;;;;;;;;-144.99;89.09;52162.75;5105862;28;20320;-69
2023/05/15 04:51:57;;;;;;;;;;;;;;;-144.99;88.83;52183.13;5103231;28;19924;-69
2023/05/15 04:54:25;;;;;;;;;;;;;;;-144.99;88.71;52207.59;5105518;27;20042;-69
2023/05/15 04:56:51;;;;;;;;;;;;;;;-144.99;88.30;52187.19;5092565;28;19996;-64
2023/05/15 04:59:18;;;;;;;;;;;;;;;-144.99;87.88;52158.66;5098448;28;19924;-62
2023/05/15 05:01:45;;;;;;;;;;;;;;;-144.99;87.82;52168.84;5095237;28;19970;-62
2023/05/15 05:04:11;;;;;;;;;;;;;;;-144.99;87.26;52183.13;5095778;28;20339;-63
2023/05/15 05:06:38;;;;;;;;;;;;;;;-144.99;86.83;52179.06;5101462;28;19948;-62
2023/05/15 05:09:04;;;;;;;;;;;;;;;-144.99;86.33;52168.84;5099183;28;20350;-63
2023/05/15 05:11:32;;;;;;;;;;;;;;;-144.99;85.88;52177.00;5100217;28;19934;-67
2023/05/15 05:13:59;;;;;;;;;;;;;;;-144.99;85.82;52166.81;5095347;27;19932;-65
2023/05/15 05:16:25;;;;;;;;;;;;;;;-144.99;85.52;52174.97;4740838;27;9999663;-65
2023/05/15 05:18:52;;;;;;;;;;;;;;;-144.99;84.96;52174.97;5097035;28;19928;-65
2023/05/15 05:21:18;;;;;;;;;;;;;;;-144.99;84.90;52158.66;5098952;28;20353;-65
2023/05/15 05:23:46;;;;;;;;;;;;;;;-144.99;84.77;52158.66;5088250;28;19960;-65
2023/05/15 05:26:12;;;;;;;;;;;;;;;-144.99;84.36;52179.06;5090361;28;20023;-65
2023/05/15 05:28:40;;;;;;;;;;;;;;;-144.99;84.31;52146.44;5098526;28;20430;-65
2023/05/15 05:31:07;;;;;;;;;;;;;;;-144.99;84.22;52146.44;5089972;28;20337;-65
2023/05/15 05:33:33;;;;;;;;;;;;;;;-144.99;83.73;52174.97;5091889;28;20329;-65
2023/05/15 05:36:00;;;;;;;;;;;;;;;-144.99;83.62;52177.00;5098276;28;20381;-66
2023/05/15 05:38:26;;;;;;;;;;;;;;;-144.99;83.48;52177.00;5090973;28;19977;-66
2023/05/15 05:40:53;;;;;;;;;;;;;;;-144.99;83.22;52121.97;5098795;28;19928;-66
2023/05/15 05:43:19;;;;;;;;;;;;;;;-144.99;82.83;52128.09;5089407;28;20017;-66
2023/05/15 05:45:47;;;;;;;;;;;;;;;-144.99;82.58;52166.81;5096739;28;20442;-65
2023/05/15 05:48:14;;;;;;;;;;;;;;;-144.99;82.13;52130.13;5095371;28;20482;-66
2023/05/15 05:50:41;;;;;;;;;;;;;;;-144.99;81.55;52170.91;5096239;28;19927;-67
2023/05/15 05:53:07;;;;;;;;;;;;;;;-144.99;80.88;52113.84;5088059;28;20546;-66
2023/05/15 05:55:34;;;;;;;;;;;;;;;-144.99;80.75;52179.06;5093211;28;19989;-67
2023/05/15 05:58:00;;;;;;;;;;;;;;;-144.99;80.36;52187.19;5102861;28;19928;-66
2023/05/15 06:00:27;;;;;;;;;;;;;;;-144.99;80.11;52138.28;5091369;28;19924;-67
2023/05/15 06:02:56;;;;;;;;;;;;;;;-144.99;79.76;52134.22;5087349;28;20019;-65
2023/05/15 06:05:23;;;;;;;;;;;;;;;-144.99;79.52;52170.91;5088010;28;19928;-65
2023/05/15 06:07:51;;;;;;;;;;;;;;;-144.99;79.53;52126.06;5091989;28;19935;-66
2023/05/15 06:10:17;;;;;;;;;;;;;;;-144.99;79.31;52138.28;5090458;28;20360;-66
2023/05/15 06:12:44;;;;;;;;;;;;;;;-144.99;79.17;52146.44;5099892;27;19975;-66
2023/05/15 06:15:13;;;;;;;;;;;;;;;-144.99;78.93;52117.91;5099532;27;19925;-66
2023/05/15 06:17:40;;;;;;;;;;;;;;;-144.99;78.73;52152.56;5097162;28;19928;-66
2023/05/15 06:20:09;;;;;;;;;;;;;;;-144.99;78.43;52105.69;5095937;28;20337;-66
2023/05/15 06:22:36;;;;;;;;;;;;;;;-144.99;78.32;52130.13;5091558;28;19950;-66
2023/05/15 06:25:03;;;;;;;;;;;;;;;-144.99;77.92;52105.69;5093092;28;19927;-66
2023/05/15 06:27:30;;;;;;;;;;;;;;;-144.99;77.79;52121.97;5095619;28;20434;-66
2023/05/15 06:29:56;;;;;;;;;;;;;;;-144.99;77.39;52134.22;5095192;28;19960;-65
2023/05/15 06:32:23;;;;;;;;;;;;;;;-144.99;77.24;52126.06;5095214;28;19962;-65
2023/05/15 06:34:49;;;;;;;;;;;;;;;-144.99;77.13;52138.28;5095276;28;19997;-64
2023/05/15 06:37:17;;;;;;;;;;;;;;;-144.99;76.79;52079.19;5099225;28;20013;-66
2023/05/15 06:39:44;;;;;;;;;;;;;;;-144.99;76.45;52134.22;5100866;28;20122;-67
2023/05/15 06:42:10;;;;;;;;;;;;;;;-144.99;75.82;52126.06;5095040;28;19928;-66
2023/05/15 06:44:37;;;;;;;;;;;;;;;-144.99;75.37;52089.38;5092908;28;20631;-66
2023/05/15 06:47:03;;;;;;;;;;;;;;;-144.99;75.05;52117.91;5100206;28;19992;-66
2023/05/15 06:49:30;;;;;;;;;;;;;;;-144.99;74.31;52101.59;5098121;28;19967;-66
2023/05/15 06:51:56;;;;;;;;;;;;;;;-144.99;73.93;52113.84;5095707;28;19932;-66
2023/05/15 06:54:25;;;;;;;;;;;;;;;-144.99;73.88;52105.69;5088551;28;20319;-66
2023/05/15 06:56:51;;;;;;;;;;;;;;;-144.99;73.92;52105.69;5089914;28;20000;-67
2023/05/15 06:59:18;;;;;;;;;;;;;;;-144.99;74.11;52083.25;5087829;28;20456;-66
2023/05/15 07:01:44;;;;;;;;;;;;;;;-144.99;74.24;52105.69;5098545;28;19955;-65
2023/05/15 07:04:11;;;;;;;;;;;;;;;-144.99;74.18;52119.94;5087428;28;19924;-66
2023/05/15 07:06:37;;;;;;;;;;;;;;;-144.99;74.03;52073.06;5099079;28;19958;-66
2023/05/15 07:09:05;;;;;;;;;;;;;;;-144.99;73.65;52101.59;5093478;28;20347;-66
2023/05/15 07:11:36;;;;;;;;;;;;;;;-144.99;73.32;52069.00;5093366;28;19930;-67
2023/05/15 07:14:02;;;;;;;;;;;;;;;-144.99;72.78;52073.06;5095604;28;20355;-66
2023/05/15 07:16:29;;;;;;;;;;;;;;;-144.99;72.34;52058.81;5102101;28;20011;-66
2023/05/15 07:18:55;;;;;;;;;;;;;;;-144.99;72.10;52113.84;5092851;28;19936;-67
2023/05/15 07:21:22;;;;;;;;;;;;;;;-144.99;72.29;52103.66;5092910;28;19976;-67
2023/05/15 07:23:48;;;;;;;;;;;;;;;-144.99;71.62;52077.16;5095017;28;19935;-67
2023/05/15 07:26:15;;;;;;;;;;;;;;;-144.99;71.59;52060.84;5094783;28;20359;-67
2023/05/15 07:28:43;;;;;;;;;;;;;;;-144.99;71.61;52060.84;5095044;28;19927;-67
2023/05/15 07:31:09;;;;;;;;;;;;;;;-144.99;71.39;52060.84;5095505;28;20032;-66
2023/05/15 07:33:36;;;;;;;;;;;;;;;-144.99;71.44;52020.09;5090296;28;20022;-67
2023/05/15 07:36:02;;;;;;;;;;;;;;;-144.99;71.59;52060.84;5089192;28;19924;-67
2023/05/15 07:38:29;;;;;;;;;;;;;;;-144.99;71.58;52032.31;5092979;28;20397;-67
2023/05/15 07:40:55;;;;;;;;;;;;;;;-144.99;71.37;52073.06;5087366;28;20381;-68
2023/05/15 07:43:22;;;;;;;;;;;;;;;-144.99;70.92;52081.22;5086290;28;19975;-66
2023/05/15 07:45:50;;;;;;;;;;;;;;;-144.99;70.94;52036.38;5094290;28;20010;-67
2023/05/15 07:48:17;;;;;;;;;;;;;;;-144.99;71.60;52042.50;5096202;28;19973;-67
2023/05/15 07:50:44;;;;;;;;;;;;;;;-144.99;71.12;52066.97;5092677;28;20353;-67
2023/05/15 07:53:11;;;;;;;;;;;;;;;-144.99;70.46;52030.28;5090349;28;20041;-68
2023/05/15 07:55:37;;;;;;;;;;;;;;;-144.99;70.31;52081.22;5093545;28;19928;-68
2023/05/15 07:58:05;;;;;;;;;;;;;;;-144.99;70.35;52052.69;5098239;28;20389;-67
2023/05/15 08:00:31;;;;;;;;;;;;;;;-144.99;69.95;52060.84;5096984;28;19946;-68
2023/05/15 08:03:00;;;;;;;;;;;;;;;-144.99;69.03;52066.97;5085937;28;19928;-68
2023/05/15 08:05:28;;;;;;;;;;;;;;;-144.99;69.14;52048.63;5086216;28;20273;-68
2023/05/15 08:07:54;;;;;;;;;;;;;;;-144.99;68.76;52032.31;5100475;28;20293;-68
2023/05/15 08:10:21;;;;;;;;;;;;;;;-144.99;68.75;52069.00;5087255;28;20042;-68
2023/05/15 08:12:49;;;;;;;;;;;;;;;-144.99;68.66;51999.69;5095092;28;19985;-68
2023/05/15 08:15:16;;;;;;;;;;;;;;;-144.99;67.89;52036.38;5100288;27;19928;-67
2023/05/15 08:17:42;;;;;;;;;;;;;;;-144.99;67.30;52048.63;5093349;28;20014;-67
2023/05/15 08:20:11;;;;;;;;;;;;;;;-144.99;67.39;52081.22;5085579;28;19928;-67
2023/05/15 08:22:37;;;;;;;;;;;;;;;-144.99;66.99;52034.34;5089677;28;20142;-68
2023/05/15 08:25:05;;;;;;;;;;;;;;;-144.99;66.75;51997.66;5085021;28;19943;-68
2023/05/15 08:27:32;;;;;;;;;;;;;;;-144.99;66.41;52036.38;5089206;28;19928;-68
2023/05/15 08:29:59;;;;;;;;;;;;;;;-144.99;65.79;52064.91;5101913;28;20098;-68
2023/05/15 08:32:26;;;;;;;;;;;;;;;-144.99;65.45;51997.66;5090304;28;19967;-69
2023/05/15 08:34:52;;;;;;;;;;;;;;;-144.99;64.94;52036.38;5090195;28;19928;-67
2023/05/15 08:37:20;;;;;;;;;;;;;;;-144.99;64.79;52005.81;5099756;28;19984;-67
2023/05/15 08:39:48;;;;;;;;;;;;;;;-144.99;64.75;52022.13;5088828;28;19928;-68
2023/05/15 08:42:19;;;;;;;;;;;;;;;-144.99;64.22;52028.22;5085778;28;19970;-68
2023/05/15 08:44:46;;;;;;;;;;;;;;;-144.99;64.17;52026.19;5094085;28;19994;-67
2023/05/15 08:47:14;;;;;;;;;;;;;;;-144.99;63.84;51999.69;5084857;28;20386;-68
2023/05/15 08:49:44;;;;;;;;;;;;;;;-144.99;62.97;52032.31;5097100;28;19974;-68
2023/05/15 08:52:11;;;;;;;;;;;;;;;-144.99;63.19;52024.16;5090203;28;19967;-68
2023/05/15 08:54:39;;;;;;;;;;;;;;;-144.99;62.97;52016.00;5101657;28;20016;-68
2023/05/15 08:57:06;;;;;;;;;;;;;;;-144.99;61.37;52036.38;5099718;28;19960;-68
2023/05/15 08:59:33;;;;;;;;;;;;;;;-144.99;61.36;51997.66;5088903;28;19970;-68
2023/05/15 09:02:00;;;;;;;;;;;;;;;-144.99;61.49;52026.19;5085991;28;19963;-68
2023/05/15 09:04:26;;;;;;;;;;;;;;;-144.99;60.66;52044.53;5089115;28;20022;-68
2023/05/15 09:06:53;;;;;;;;;;;;;;;-144.99;60.39;51993.59;5095965;28;20389;-68
2023/05/15 09:09:20;;;;;;;;;;;;;;;-144.99;59.96;52042.50;5091993;28;19967;-68
2023/05/15 09:11:48;;;;;;;;;;;;;;;-144.99;59.74;51979.31;5094736;28;19928;-69
2023/05/15 09:14:15;;;;;;;;;;;;;;;-144.99;59.51;51971.16;5095566;28;19958;-68
2023/05/15 09:16:41;;;;;;;;;;;;;;;-144.99;59.54;51991.56;5088601;28;20369;-68
2023/05/15 09:19:08;;;;;;;;;;;;;;;-144.99;59.47;51999.69;5096520;28;19924;-68
2023/05/15 09:21:35;;;;;;;;;;;;;;;-144.99;59.26;51993.59;5099371;28;19947;-69
2023/05/15 09:24:23;;;;;;;;;;;;;;;-144.99;58.95;51969.13;5084868;28;19927;-69
2023/05/15 09:27:02;;;;;;;;;;;;;;;-144.99;58.75;51991.56;5087342;28;20416;-70
2023/05/15 09:29:30;;;;;;;;;;;;;;;-144.99;58.70;51991.56;5091206;28;20027;-69
2023/05/15 09:31:56;;;;;;;;;;;;;;;-144.99;58.13;51938.56;5083950;28;20352;-68
2023/05/15 09:34:29;;;;;;;;;;;;;;;-144.99;58.41;51999.69;5084364;28;20351;-68
2023/05/15 09:36:55;;;;;;;;;;;;;;;-144.99;58.07;51983.41;5094525;28;20466;-68
2023/05/15 09:39:22;;;;;;;;;;;;;;;-144.99;58.00;51918.19;5093395;28;19928;-68
2023/05/15 09:41:49;;;;;;;;;;;;;;;-144.99;57.61;51987.47;5096209;28;19955;-69
2023/05/15 09:44:20;;;;;;;;;;;;;;;-144.99;57.87;52020.09;5090613;28;19985;-69
2023/05/15 09:46:46;;;;;;;;;;;;;;;-144.99;57.60;51971.16;5089775;28;19943;-68
2023/05/15 09:49:13;;;;;;;;;;;;;;;-144.99;57.45;51987.47;5093248;28;19934;-69
2023/05/15 09:51:40;;;;;;;;;;;;;;;-144.99;57.85;51950.78;5096507;28;19932;-69
2023/05/15 09:54:11;;;;;;;;;;;;;;;-144.99;57.53;51979.31;5097395;28;19963;-69
2023/05/15 09:56:37;;;;;;;;;;;;;;;-144.99;57.55;51938.56;5094253;28;20028;-69
2023/05/15 09:59:04;;;;;;;;;;;;;;;-144.99;57.57;51973.22;5093447;28;19928;-68
2023/05/15 10:01:32;;;;;;;;;;;;;;;-144.99;57.83;51969.13;5093053;28;19993;-68
2023/05/15 10:03:59;;;;;;;;;;;;;;;-144.99;57.44;51956.91;5095271;28;19936;-68
2023/05/15 10:06:26;;;;;;;;;;;;;;;-144.99;57.44;51975.25;5096417;28;20352;-69
2023/05/15 10:08:53;;;;;;;;;;;;;;;-144.99;57.51;51967.09;5093574;28;19928;-68
2023/05/15 10:11:20;;;;;;;;;;;;;;;-144.99;57.15;51952.81;5087187;28;19927;-69
2023/05/15 10:13:47;;;;;;;;;;;;;;;-144.99;56.97;51914.09;5097377;27;20022;-70
2023/05/15 10:16:13;;;;;;;;;;;;;;;-144.99;56.53;51922.25;5089348;28;19969;-69
2023/05/15 10:18:43;;;;;;;;;;;;;;;-144.99;56.52;51899.84;5090070;28;19971;-69
2023/05/15 10:21:10;;;;;;;;;;;;;;;-144.99;55.89;51922.25;4744878;27;9999855;-70
2023/05/15 10:23:37;;;;;;;;;;;;;;;-144.99;55.35;51916.16;5087943;28;19932;-70
2023/05/15 10:26:06;;;;;;;;;;;;;;;-144.99;55.82;51930.41;5089692;28;20126;-71
2023/05/15 10:28:33;;;;;;;;;;;;;;;-144.99;55.76;51918.19;5096521;28;20392;-70
2023/05/15 10:31:01;;;;;;;;;;;;;;;-144.99;55.26;51873.34;5095297;28;19928;-71
2023/05/15 10:33:28;;;;;;;;;;;;;;;-144.99;54.92;51897.81;5097763;28;19985;-70
2023/05/15 10:35:56;;;;;;;;;;;;;;;-144.99;54.29;51901.88;5096283;28;19928;-69
2023/05/15 10:38:23;;;;;;;;;;;;;;;-144.99;54.50;51863.16;5091977;28;20370;-69
2023/05/15 10:40:52;;;;;;;;;;;;;;;-144.99;54.57;51865.19;5088152;28;19928;-70
2023/05/15 10:43:20;;;;;;;;;;;;;;;-144.99;54.30;51857.03;5088230;28;20012;-70
2023/05/15 10:45:47;;;;;;;;;;;;;;;-144.99;53.91;51863.16;5089798;28;19978;-70
2023/05/15 10:48:14;;;;;;;;;;;;;;;-144.99;53.47;51816.28;5091492;28;19969;-69
2023/05/15 10:50:41;;;;;;;;;;;;;;;-144.99;53.49;51897.81;5093579;28;20037;-69
2023/05/15 10:53:10;;;;;;;;;;;;;;;-144.99;54.34;51828.50;5097563;28;20050;-70
2023/05/15 10:55:37;;;;;;;;;;;;;;;-144.99;54.34;51844.81;5086736;28;20069;-69
2023/05/15 10:58:08;;;;;;;;;;;;;;;-144.99;53.65;51816.28;5101646;28;20039;-70
2023/05/15 11:00:40;;;;;;;;;;;;;;;-144.99;53.46;51840.75;5089719;28;19928;-70
2023/05/15 11:03:07;;;;;;;;;;;;;;;-144.99;53.15;51808.13;5087321;28;19927;-70
2023/05/15 11:05:59;;;;;;;;;;;;;;;-144.99;53.42;51818.31;5093241;28;20265;-70
2023/05/15 11:08:27;;;;;;;;;;;;;;;-144.99;52.65;51840.75;5092006;28;19939;-70
2023/05/15 11:10:56;;;;;;;;;;;;;;;-144.99;53.25;51852.97;5094450;28;20371;-70
2023/05/15 11:13:22;;;;;;;;;;;;;;;-144.99;53.37;51787.75;5086102;28;20076;-71
2023/05/15 11:15:49;;;;;;;;;;;;;;;-144.99;52.85;51840.75;5096480;28;20349;-71
2023/05/15 11:18:15;;;;;;;;;;;;;;;-144.99;53.55;51824.44;5100322;28;20369;-71
2023/05/15 11:20:42;;;;;;;;;;;;;;;-144.99;54.87;51873.34;5093312;28;20182;-70
2023/05/15 11:23:09;;;;;;;;;;;;;;;-144.99;55.72;51924.28;5089953;28;20026;-70
2023/05/15 11:25:37;;;;;;;;;;;;;;;-144.99;55.64;51889.66;5091345;28;19928;-70
2023/05/15 11:28:04;;;;;;;;;;;;;;;-144.99;56.50;51979.31;5091169;28;19928;-70
2023/05/15 11:30:35;;;;;;;;;;;;;;;-144.99;56.32;51999.69;5098988;28;19946;-71
2023/05/15 11:33:02;;;;;;;;;;;;;;;-144.99;57.10;52048.63;5096084;28;20030;-70
2023/05/15 11:35:30;;;;;;;;;;;;;;;-144.99;57.80;52007.84;5096408;28;19957;-70
2023/05/15 11:37:58;;;;;;;;;;;;;;;-144.99;58.67;52036.38;5099912;28;19943;-70
2023/05/15 11:40:25;;;;;;;;;;;;;;;-144.99;58.94;52032.31;5090895;28;20415;-69
2023/05/15 11:43:03;;;;;;;;;;;;;;;-144.99;59.30;51967.09;5088100;28;19944;-70
2023/05/15 11:45:31;;;;;;;;;;;;;;;-144.99;58.70;51926.34;5094289;28;20690;-71
2023/05/15 11:47:59;;;;;;;;;;;;;;;-144.99;58.77;51901.88;5096620;28;20362;-69
2023/05/15 11:50:26;;;;;;;;;;;;;;;-144.99;58.78;51938.56;5092137;28;20292;-70
2023/05/15 11:52:52;;;;;;;;;;;;;;;-144.99;59.17;51948.75;5102477;28;20360;-69
2023/05/15 11:55:20;;;;;;;;;;;;;;;-144.99;59.30;51918.19;5093927;28;19971;-70
2023/05/15 11:57:46;;;;;;;;;;;;;;;-144.99;59.42;51924.28;5090465;28;19924;-69
2023/05/15 12:00:14;;;;;;;;;;;;;;;-144.99;58.93;51946.72;5086278;28;20602;-70
2023/05/15 12:02:41;;;;;;;;;;;;;;;-144.99;59.12;51934.50;5093214;28;20046;-70
2023/05/15 12:05:08;;;;;;;;;;;;;;;-144.99;58.97;51922.25;5085964;28;20019;-70
2023/05/15 12:07:36;;;;;;;;;;;;;;;-144.99;59.58;51950.78;5095285;28;20071;-70
2023/05/15 12:10:02;;;;;;;;;;;;;;;-144.99;60.00;51924.28;5088368;28;20011;-70
2023/05/15 12:12:29;;;;;;;;;;;;;;;-144.99;59.91;51948.75;5091549;28;19931;-70
2023/05/15 12:14:58;;;;;;;;;;;;;;;-144.99;60.27;51926.34;5092950;27;20014;-70
2023/05/15 12:17:26;;;;;;;;;;;;;;;-144.99;60.43;51885.56;5103481;28;19927;-70
2023/05/15 12:19:53;;;;;;;;;;;;;;;-144.99;59.89;51897.81;5090004;28;19928;-70
2023/05/15 12:22:20;;;;;;;;;;;;;;;-144.99;60.08;51920.22;5096741;28;20015;-70
2023/05/15 12:24:47;;;;;;;;;;;;;;;-144.99;60.11;51918.19;5095262;28;19943;-70
2023/05/15 12:27:14;;;;;;;;;;;;;;;-144.99;59.46;51967.09;5088262;28;19993;-70